sensor_id;sensor_type;location;lat;lon;timestamp;P1;durP1;ratioP1;P2;durP2;ratioP2
71456;SDS011;59263;48.160;11.752;2023-09-18T00:01:04;7.37;;;1.60;;
71456;SDS011;59263;48.160;11.752;2023-09-18T00:03:30;6.80;;;2.03;;
71456;SDS011;59263;48.160;11.752;2023-09-18T00:05:56;6.23;;;1.70;;
71456;SDS011;59263;48.160;11.752;2023-09-18T00:08:21;7.37;;;2.33;;
71456;SDS011;59263;48.160;11.752;2023-09-18T00:10:47;7.50;;;1.80;;
71456;SDS011;59263;48.160;11.752;2023-09-18T00:13:14;6.13;;;2.07;;
71456;SDS011;59263;48.160;11.752;2023-09-18T00:15:40;8.52;;;2.08;;
71456;SDS011;59263;48.160;11.752;2023-09-18T00:18:06;6.00;;;1.70;;
71456;SDS011;59263;48.160;11.752;2023-09-18T00:20:31;5.80;;;1.90;;
71456;SDS011;59263;48.160;11.752;2023-09-18T00:22:56;6.60;;;2.27;;
71456;SDS011;59263;48.160;11.752;2023-09-18T00:25:22;6.93;;;1.70;;
71456;SDS011;59263;48.160;11.752;2023-09-18T00:27:47;7.20;;;2.28;;
71456;SDS011;59263;48.160;11.752;2023-09-18T00:30:13;6.73;;;2.00;;
71456;SDS011;59263;48.160;11.752;2023-09-18T00:32:38;6.27;;;2.03;;
71456;SDS011;59263;48.160;11.752;2023-09-18T00:35:03;6.57;;;2.00;;
71456;SDS011;59263;48.160;11.752;2023-09-18T00:37:29;8.13;;;2.00;;
71456;SDS011;59263;48.160;11.752;2023-09-18T00:39:54;6.17;;;1.80;;
71456;SDS011;59263;48.160;11.752;2023-09-18T00:42:20;5.43;;;1.83;;
71456;SDS011;59263;48.160;11.752;2023-09-18T00:44:47;6.03;;;1.83;;
71456;SDS011;59263;48.160;11.752;2023-09-18T00:47:13;6.07;;;2.05;;
71456;SDS011;59263;48.160;11.752;2023-09-18T00:49:40;7.55;;;1.80;;
71456;SDS011;59263;48.160;11.752;2023-09-18T00:52:08;5.63;;;1.65;;
71456;SDS011;59263;48.160;11.752;2023-09-18T00:54:34;6.32;;;2.00;;
71456;SDS011;59263;48.160;11.752;2023-09-18T00:57:02;5.07;;;1.80;;
71456;SDS011;59263;48.160;11.752;2023-09-18T00:59:28;6.40;;;2.08;;
71456;SDS011;59263;48.160;11.752;2023-09-18T01:01:53;6.00;;;1.90;;
71456;SDS011;59263;48.160;11.752;2023-09-18T01:04:19;7.38;;;2.03;;
71456;SDS011;59263;48.160;11.752;2023-09-18T01:06:46;7.13;;;1.88;;
71456;SDS011;59263;48.160;11.752;2023-09-18T01:09:14;7.13;;;2.17;;
71456;SDS011;59263;48.160;11.752;2023-09-18T01:11:54;6.18;;;1.90;;
71456;SDS011;59263;48.160;11.752;2023-09-18T01:17:20;6.45;;;1.90;;
71456;SDS011;59263;48.160;11.752;2023-09-18T01:19:46;6.40;;;1.97;;
71456;SDS011;59263;48.160;11.752;2023-09-18T01:22:13;6.50;;;1.80;;
71456;SDS011;59263;48.160;11.752;2023-09-18T01:24:40;5.85;;;1.60;;
71456;SDS011;59263;48.160;11.752;2023-09-18T01:27:10;7.38;;;2.05;;
71456;SDS011;59263;48.160;11.752;2023-09-18T01:29:41;7.93;;;1.95;;
71456;SDS011;59263;48.160;11.752;2023-09-18T01:32:07;6.15;;;1.88;;
71456;SDS011;59263;48.160;11.752;2023-09-18T01:34:33;6.97;;;2.10;;
71456;SDS011;59263;48.160;11.752;2023-09-18T01:37:02;7.82;;;1.92;;
71456;SDS011;59263;48.160;11.752;2023-09-18T01:39:29;7.00;;;2.00;;
71456;SDS011;59263;48.160;11.752;2023-09-18T01:41:59;6.47;;;1.77;;
71456;SDS011;59263;48.160;11.752;2023-09-18T01:44:27;6.00;;;1.65;;
71456;SDS011;59263;48.160;11.752;2023-09-18T01:46:53;6.97;;;1.92;;
71456;SDS011;59263;48.160;11.752;2023-09-18T01:49:32;6.38;;;1.92;;
71456;SDS011;59263;48.160;11.752;2023-09-18T01:51:58;7.22;;;2.05;;
71456;SDS011;59263;48.160;11.752;2023-09-18T01:54:24;7.03;;;1.90;;
71456;SDS011;59263;48.160;11.752;2023-09-18T01:56:50;6.07;;;1.88;;
71456;SDS011;59263;48.160;11.752;2023-09-18T01:59:17;6.73;;;2.20;;
71456;SDS011;59263;48.160;11.752;2023-09-18T02:01:43;6.22;;;1.70;;
71456;SDS011;59263;48.160;11.752;2023-09-18T02:04:08;7.87;;;2.37;;
71456;SDS011;59263;48.160;11.752;2023-09-18T02:06:33;5.75;;;1.52;;
71456;SDS011;59263;48.160;11.752;2023-09-18T02:08:59;6.40;;;2.05;;
71456;SDS011;59263;48.160;11.752;2023-09-18T02:11:25;5.37;;;1.77;;
71456;SDS011;59263;48.160;11.752;2023-09-18T02:13:51;6.10;;;1.75;;
71456;SDS011;59263;48.160;11.752;2023-09-18T02:16:17;6.90;;;2.10;;
71456;SDS011;59263;48.160;11.752;2023-09-18T02:18:42;6.73;;;1.97;;
71456;SDS011;59263;48.160;11.752;2023-09-18T02:21:09;5.45;;;1.60;;
71456;SDS011;59263;48.160;11.752;2023-09-18T02:23:34;6.97;;;2.00;;
71456;SDS011;59263;48.160;11.752;2023-09-18T02:25:59;5.27;;;1.50;;
71456;SDS011;59263;48.160;11.752;2023-09-18T02:28:25;5.60;;;1.95;;
71456;SDS011;59263;48.160;11.752;2023-09-18T02:30:50;5.50;;;1.60;;
71456;SDS011;59263;48.160;11.752;2023-09-18T02:33:16;6.73;;;2.10;;
71456;SDS011;59263;48.160;11.752;2023-09-18T02:35:41;6.40;;;1.90;;
71456;SDS011;59263;48.160;11.752;2023-09-18T02:38:08;5.38;;;1.50;;
71456;SDS011;59263;48.160;11.752;2023-09-18T02:40:34;6.55;;;1.90;;
71456;SDS011;59263;48.160;11.752;2023-09-18T02:42:59;6.70;;;1.97;;
71456;SDS011;59263;48.160;11.752;2023-09-18T02:45:25;10.40;;;2.07;;
71456;SDS011;59263;48.160;11.752;2023-09-18T02:47:50;7.20;;;2.10;;
71456;SDS011;59263;48.160;11.752;2023-09-18T02:50:15;12.70;;;2.65;;
71456;SDS011;59263;48.160;11.752;2023-09-18T02:52:41;7.85;;;2.03;;
71456;SDS011;59263;48.160;11.752;2023-09-18T02:55:06;8.10;;;1.70;;
71456;SDS011;59263;48.160;11.752;2023-09-18T02:57:34;6.45;;;1.85;;
71456;SDS011;59263;48.160;11.752;2023-09-18T03:00:00;6.63;;;1.63;;
71456;SDS011;59263;48.160;11.752;2023-09-18T03:02:25;8.17;;;2.97;;
71456;SDS011;59263;48.160;11.752;2023-09-18T03:04:50;5.47;;;1.77;;
71456;SDS011;59263;48.160;11.752;2023-09-18T03:07:16;6.35;;;2.00;;
71456;SDS011;59263;48.160;11.752;2023-09-18T03:09:41;5.47;;;1.65;;
71456;SDS011;59263;48.160;11.752;2023-09-18T03:12:06;8.50;;;2.00;;
71456;SDS011;59263;48.160;11.752;2023-09-18T03:14:32;9.77;;;2.20;;
71456;SDS011;59263;48.160;11.752;2023-09-18T03:16:57;7.40;;;2.58;;
71456;SDS011;59263;48.160;11.752;2023-09-18T03:19:23;6.78;;;2.13;;
71456;SDS011;59263;48.160;11.752;2023-09-18T03:21:49;9.50;;;2.60;;
71456;SDS011;59263;48.160;11.752;2023-09-18T03:24:15;6.88;;;1.90;;
71456;SDS011;59263;48.160;11.752;2023-09-18T03:26:40;5.93;;;1.80;;
71456;SDS011;59263;48.160;11.752;2023-09-18T03:29:05;6.90;;;2.00;;
71456;SDS011;59263;48.160;11.752;2023-09-18T03:31:30;9.33;;;1.63;;
71456;SDS011;59263;48.160;11.752;2023-09-18T03:33:56;7.37;;;2.10;;
71456;SDS011;59263;48.160;11.752;2023-09-18T03:36:22;6.33;;;1.83;;
71456;SDS011;59263;48.160;11.752;2023-09-18T03:38:50;6.47;;;1.98;;
71456;SDS011;59263;48.160;11.752;2023-09-18T03:41:15;6.63;;;2.03;;
71456;SDS011;59263;48.160;11.752;2023-09-18T03:43:40;5.27;;;1.60;;
71456;SDS011;59263;48.160;11.752;2023-09-18T03:46:06;6.50;;;2.00;;
71456;SDS011;59263;48.160;11.752;2023-09-18T03:48:32;6.32;;;1.90;;
71456;SDS011;59263;48.160;11.752;2023-09-18T03:51:02;7.07;;;2.22;;
71456;SDS011;59263;48.160;11.752;2023-09-18T03:53:29;5.88;;;1.95;;
71456;SDS011;59263;48.160;11.752;2023-09-18T03:55:54;7.20;;;2.30;;
71456;SDS011;59263;48.160;11.752;2023-09-18T03:58:20;6.70;;;1.90;;
71456;SDS011;59263;48.160;11.752;2023-09-18T04:00:45;7.03;;;2.20;;
71456;SDS011;59263;48.160;11.752;2023-09-18T04:03:11;7.18;;;2.35;;
71456;SDS011;59263;48.160;11.752;2023-09-18T04:05:36;6.30;;;1.80;;
71456;SDS011;59263;48.160;11.752;2023-09-18T04:08:01;6.07;;;1.80;;
71456;SDS011;59263;48.160;11.752;2023-09-18T04:10:27;7.37;;;2.30;;
71456;SDS011;59263;48.160;11.752;2023-09-18T04:12:52;7.03;;;1.90;;
71456;SDS011;59263;48.160;11.752;2023-09-18T04:15:18;6.67;;;2.20;;
71456;SDS011;59263;48.160;11.752;2023-09-18T04:17:44;6.82;;;2.28;;
71456;SDS011;59263;48.160;11.752;2023-09-18T04:20:09;7.65;;;2.50;;
71456;SDS011;59263;48.160;11.752;2023-09-18T04:22:35;6.68;;;2.05;;
71456;SDS011;59263;48.160;11.752;2023-09-18T04:25:00;6.35;;;2.17;;
71456;SDS011;59263;48.160;11.752;2023-09-18T04:27:26;7.17;;;1.77;;
71456;SDS011;59263;48.160;11.752;2023-09-18T04:29:51;5.87;;;1.80;;
71456;SDS011;59263;48.160;11.752;2023-09-18T04:32:16;6.83;;;2.10;;
71456;SDS011;59263;48.160;11.752;2023-09-18T04:34:42;6.17;;;2.17;;
71456;SDS011;59263;48.160;11.752;2023-09-18T04:37:07;6.67;;;2.10;;
71456;SDS011;59263;48.160;11.752;2023-09-18T04:39:32;6.20;;;1.60;;
71456;SDS011;59263;48.160;11.752;2023-09-18T04:41:59;6.70;;;2.08;;
71456;SDS011;59263;48.160;11.752;2023-09-18T04:44:26;7.75;;;2.20;;
71456;SDS011;59263;48.160;11.752;2023-09-18T04:46:51;6.90;;;2.27;;
71456;SDS011;59263;48.160;11.752;2023-09-18T04:49:17;7.38;;;2.05;;
71456;SDS011;59263;48.160;11.752;2023-09-18T04:51:42;8.10;;;2.10;;
71456;SDS011;59263;48.160;11.752;2023-09-18T04:54:09;8.68;;;2.33;;
71456;SDS011;59263;48.160;11.752;2023-09-18T04:56:34;6.65;;;1.95;;
71456;SDS011;59263;48.160;11.752;2023-09-18T04:58:59;6.90;;;2.20;;
71456;SDS011;59263;48.160;11.752;2023-09-18T05:01:24;6.87;;;2.00;;
71456;SDS011;59263;48.160;11.752;2023-09-18T05:03:50;6.03;;;2.10;;
71456;SDS011;59263;48.160;11.752;2023-09-18T05:06:16;7.35;;;2.17;;
71456;SDS011;59263;48.160;11.752;2023-09-18T05:08:42;6.23;;;1.97;;
71456;SDS011;59263;48.160;11.752;2023-09-18T05:11:08;7.15;;;1.90;;
71456;SDS011;59263;48.160;11.752;2023-09-18T05:13:33;7.50;;;2.27;;
71456;SDS011;59263;48.160;11.752;2023-09-18T05:15:58;7.23;;;1.97;;
71456;SDS011;59263;48.160;11.752;2023-09-18T05:18:25;6.30;;;1.90;;
71456;SDS011;59263;48.160;11.752;2023-09-18T05:20:51;7.13;;;2.13;;
71456;SDS011;59263;48.160;11.752;2023-09-18T05:23:16;6.53;;;2.20;;
71456;SDS011;59263;48.160;11.752;2023-09-18T05:25:42;6.57;;;2.08;;
71456;SDS011;59263;48.160;11.752;2023-09-18T05:28:09;5.85;;;1.70;;
71456;SDS011;59263;48.160;11.752;2023-09-18T05:30:34;7.60;;;2.00;;
71456;SDS011;59263;48.160;11.752;2023-09-18T05:33:03;6.28;;;2.10;;
71456;SDS011;59263;48.160;11.752;2023-09-18T05:37:57;6.33;;;2.10;;
71456;SDS011;59263;48.160;11.752;2023-09-18T05:40:23;6.88;;;2.13;;
71456;SDS011;59263;48.160;11.752;2023-09-18T05:42:51;6.70;;;2.15;;
71456;SDS011;59263;48.160;11.752;2023-09-18T05:45:18;7.15;;;2.17;;
71456;SDS011;59263;48.160;11.752;2023-09-18T05:47:43;9.63;;;2.47;;
71456;SDS011;59263;48.160;11.752;2023-09-18T05:50:09;7.20;;;2.00;;
71456;SDS011;59263;48.160;11.752;2023-09-18T05:52:39;7.00;;;2.10;;
71456;SDS011;59263;48.160;11.752;2023-09-18T05:55:05;6.57;;;2.07;;
71456;SDS011;59263;48.160;11.752;2023-09-18T05:57:32;7.38;;;2.53;;
71456;SDS011;59263;48.160;11.752;2023-09-18T05:59:57;6.27;;;1.93;;
71456;SDS011;59263;48.160;11.752;2023-09-18T06:02:23;5.97;;;2.00;;
71456;SDS011;59263;48.160;11.752;2023-09-18T06:04:50;6.72;;;1.75;;
71456;SDS011;59263;48.160;11.752;2023-09-18T06:07:20;5.93;;;1.80;;
71456;SDS011;59263;48.160;11.752;2023-09-18T06:09:47;7.82;;;1.92;;
71456;SDS011;59263;48.160;11.752;2023-09-18T06:12:13;5.87;;;1.83;;
71456;SDS011;59263;48.160;11.752;2023-09-18T06:14:39;5.97;;;1.80;;
71456;SDS011;59263;48.160;11.752;2023-09-18T06:17:04;7.83;;;2.00;;
71456;SDS011;59263;48.160;11.752;2023-09-18T06:19:31;6.05;;;1.88;;
71456;SDS011;59263;48.160;11.752;2023-09-18T06:21:56;8.40;;;2.10;;
71456;SDS011;59263;48.160;11.752;2023-09-18T06:24:21;7.83;;;1.90;;
71456;SDS011;59263;48.160;11.752;2023-09-18T06:26:47;9.57;;;2.10;;
71456;SDS011;59263;48.160;11.752;2023-09-18T06:29:12;6.57;;;1.85;;
71456;SDS011;59263;48.160;11.752;2023-09-18T06:31:38;6.25;;;1.67;;
71456;SDS011;59263;48.160;11.752;2023-09-18T06:34:04;6.97;;;1.97;;
71456;SDS011;59263;48.160;11.752;2023-09-18T06:36:29;6.13;;;1.98;;
71456;SDS011;59263;48.160;11.752;2023-09-18T06:38:54;5.47;;;1.80;;
71456;SDS011;59263;48.160;11.752;2023-09-18T06:41:20;6.87;;;2.20;;
71456;SDS011;59263;48.160;11.752;2023-09-18T06:43:45;7.57;;;2.00;;
71456;SDS011;59263;48.160;11.752;2023-09-18T06:46:10;6.50;;;2.13;;
71456;SDS011;59263;48.160;11.752;2023-09-18T06:48:36;5.63;;;1.83;;
71456;SDS011;59263;48.160;11.752;2023-09-18T06:51:01;6.85;;;2.15;;
71456;SDS011;59263;48.160;11.752;2023-09-18T06:53:27;6.23;;;1.93;;
71456;SDS011;59263;48.160;11.752;2023-09-18T06:55:53;8.43;;;1.98;;
71456;SDS011;59263;48.160;11.752;2023-09-18T06:58:19;5.13;;;1.93;;
71456;SDS011;59263;48.160;11.752;2023-09-18T07:00:44;7.40;;;1.95;;
71456;SDS011;59263;48.160;11.752;2023-09-18T07:03:09;6.50;;;2.00;;
71456;SDS011;59263;48.160;11.752;2023-09-18T07:05:36;6.25;;;1.90;;
71456;SDS011;59263;48.160;11.752;2023-09-18T07:08:02;11.27;;;1.70;;
71456;SDS011;59263;48.160;11.752;2023-09-18T07:10:29;6.10;;;1.52;;
71456;SDS011;59263;48.160;11.752;2023-09-18T07:12:55;5.97;;;1.50;;
71456;SDS011;59263;48.160;11.752;2023-09-18T07:15:20;5.93;;;1.60;;
71456;SDS011;59263;48.160;11.752;2023-09-18T07:17:45;9.57;;;1.50;;
71456;SDS011;59263;48.160;11.752;2023-09-18T07:20:10;8.40;;;1.35;;
71456;SDS011;59263;48.160;11.752;2023-09-18T07:22:39;5.83;;;1.63;;
71456;SDS011;59263;48.160;11.752;2023-09-18T07:25:06;5.70;;;1.63;;
71456;SDS011;59263;48.160;11.752;2023-09-18T07:27:32;7.47;;;1.85;;
71456;SDS011;59263;48.160;11.752;2023-09-18T07:29:58;8.18;;;1.95;;
71456;SDS011;59263;48.160;11.752;2023-09-18T07:32:23;6.30;;;1.57;;
71456;SDS011;59263;48.160;11.752;2023-09-18T07:34:50;6.95;;;1.63;;
71456;SDS011;59263;48.160;11.752;2023-09-18T07:37:15;5.20;;;1.60;;
71456;SDS011;59263;48.160;11.752;2023-09-18T07:39:45;6.70;;;1.83;;
71456;SDS011;59263;48.160;11.752;2023-09-18T07:42:11;6.85;;;1.83;;
71456;SDS011;59263;48.160;11.752;2023-09-18T07:44:36;6.33;;;1.70;;
71456;SDS011;59263;48.160;11.752;2023-09-18T07:47:02;7.10;;;1.67;;
71456;SDS011;59263;48.160;11.752;2023-09-18T07:49:27;7.43;;;1.83;;
71456;SDS011;59263;48.160;11.752;2023-09-18T07:51:53;6.82;;;2.10;;
71456;SDS011;59263;48.160;11.752;2023-09-18T07:54:18;6.03;;;1.67;;
71456;SDS011;59263;48.160;11.752;2023-09-18T07:56:43;6.83;;;2.00;;
71456;SDS011;59263;48.160;11.752;2023-09-18T07:59:09;9.43;;;2.03;;
71456;SDS011;59263;48.160;11.752;2023-09-18T08:01:35;6.07;;;1.77;;
71456;SDS011;59263;48.160;11.752;2023-09-18T08:04:01;6.40;;;1.80;;
71456;SDS011;59263;48.160;11.752;2023-09-18T08:06:26;10.23;;;2.03;;
71456;SDS011;59263;48.160;11.752;2023-09-18T08:08:53;6.90;;;1.97;;
71456;SDS011;59263;48.160;11.752;2023-09-18T08:11:18;7.47;;;2.20;;
71456;SDS011;59263;48.160;11.752;2023-09-18T08:13:44;7.60;;;2.03;;
71456;SDS011;59263;48.160;11.752;2023-09-18T08:16:09;7.70;;;2.10;;
71456;SDS011;59263;48.160;11.752;2023-09-18T08:18:35;5.53;;;1.88;;
71456;SDS011;59263;48.160;11.752;2023-09-18T08:21:01;6.57;;;2.00;;
71456;SDS011;59263;48.160;11.752;2023-09-18T08:23:26;5.97;;;1.90;;
71456;SDS011;59263;48.160;11.752;2023-09-18T08:25:52;6.75;;;2.15;;
71456;SDS011;59263;48.160;11.752;2023-09-18T08:28:20;4.88;;;1.60;;
71456;SDS011;59263;48.160;11.752;2023-09-18T08:30:46;6.68;;;2.25;;
71456;SDS011;59263;48.160;11.752;2023-09-18T08:33:12;5.68;;;1.70;;
71456;SDS011;59263;48.160;11.752;2023-09-18T08:35:38;6.90;;;1.73;;
71456;SDS011;59263;48.160;11.752;2023-09-18T08:38:04;8.55;;;2.13;;
71456;SDS011;59263;48.160;11.752;2023-09-18T08:40:30;7.00;;;1.97;;
71456;SDS011;59263;48.160;11.752;2023-09-18T08:42:55;6.32;;;1.95;;
71456;SDS011;59263;48.160;11.752;2023-09-18T08:48:17;7.82;;;2.00;;
71456;SDS011;59263;48.160;11.752;2023-09-18T08:50:42;6.75;;;2.08;;
71456;SDS011;59263;48.160;11.752;2023-09-18T08:53:10;6.53;;;2.42;;
71456;SDS011;59263;48.160;11.752;2023-09-18T08:55:35;5.90;;;1.92;;
71456;SDS011;59263;48.160;11.752;2023-09-18T08:58:00;6.70;;;2.20;;
71456;SDS011;59263;48.160;11.752;2023-09-18T09:00:26;7.27;;;2.27;;
71456;SDS011;59263;48.160;11.752;2023-09-18T09:02:52;6.70;;;1.98;;
71456;SDS011;59263;48.160;11.752;2023-09-18T09:05:19;8.25;;;2.45;;
71456;SDS011;59263;48.160;11.752;2023-09-18T09:07:45;7.43;;;1.70;;
71456;SDS011;59263;48.160;11.752;2023-09-18T09:10:11;8.33;;;2.10;;
71456;SDS011;59263;48.160;11.752;2023-09-18T09:12:50;8.93;;;2.00;;
71456;SDS011;59263;48.160;11.752;2023-09-18T09:15:18;6.68;;;2.15;;
71456;SDS011;59263;48.160;11.752;2023-09-18T09:17:44;6.20;;;2.10;;
71456;SDS011;59263;48.160;11.752;2023-09-18T09:20:11;7.43;;;2.45;;
71456;SDS011;59263;48.160;11.752;2023-09-18T09:22:38;9.30;;;2.10;;
71456;SDS011;59263;48.160;11.752;2023-09-18T09:25:21;6.13;;;2.15;;
71456;SDS011;59263;48.160;11.752;2023-09-18T09:27:55;8.10;;;2.13;;
71456;SDS011;59263;48.160;11.752;2023-09-18T09:30:21;7.00;;;2.30;;
71456;SDS011;59263;48.160;11.752;2023-09-18T09:32:49;6.18;;;2.10;;
71456;SDS011;59263;48.160;11.752;2023-09-18T09:35:22;8.73;;;2.28;;
71456;SDS011;59263;48.160;11.752;2023-09-18T09:37:52;8.73;;;2.65;;
71456;SDS011;59263;48.160;11.752;2023-09-18T09:40:19;7.57;;;2.38;;
71456;SDS011;59263;48.160;11.752;2023-09-18T09:42:45;7.68;;;2.22;;
71456;SDS011;59263;48.160;11.752;2023-09-18T09:45:14;6.40;;;2.20;;
71456;SDS011;59263;48.160;11.752;2023-09-18T09:47:43;7.32;;;2.58;;
71456;SDS011;59263;48.160;11.752;2023-09-18T09:50:10;6.78;;;2.10;;
71456;SDS011;59263;48.160;11.752;2023-09-18T09:52:47;7.35;;;2.33;;
71456;SDS011;59263;48.160;11.752;2023-09-18T09:57:50;7.18;;;2.10;;
71456;SDS011;59263;48.160;11.752;2023-09-18T10:00:16;8.45;;;2.28;;
71456;SDS011;59263;48.160;11.752;2023-09-18T10:02:57;8.82;;;2.40;;
71456;SDS011;59263;48.160;11.752;2023-09-18T10:05:28;6.88;;;2.30;;
71456;SDS011;59263;48.160;11.752;2023-09-18T10:07:57;7.82;;;2.13;;
71456;SDS011;59263;48.160;11.752;2023-09-18T10:10:29;6.80;;;2.10;;
71456;SDS011;59263;48.160;11.752;2023-09-18T10:13:00;6.63;;;2.13;;
71456;SDS011;59263;48.160;11.752;2023-09-18T10:15:29;5.95;;;2.10;;
71456;SDS011;59263;48.160;11.752;2023-09-18T10:17:58;6.82;;;2.03;;
71456;SDS011;59263;48.160;11.752;2023-09-18T10:20:25;6.95;;;2.10;;
71456;SDS011;59263;48.160;11.752;2023-09-18T10:22:53;6.55;;;1.98;;
71456;SDS011;59263;48.160;11.752;2023-09-18T10:25:23;8.27;;;2.28;;
71456;SDS011;59263;48.160;11.752;2023-09-18T10:27:50;6.23;;;2.23;;
71456;SDS011;59263;48.160;11.752;2023-09-18T10:30:19;9.10;;;2.55;;
71456;SDS011;59263;48.160;11.752;2023-09-18T10:32:47;6.05;;;2.00;;
71456;SDS011;59263;48.160;11.752;2023-09-18T10:35:14;5.68;;;1.70;;
71456;SDS011;59263;48.160;11.752;2023-09-18T10:37:43;6.82;;;2.25;;
71456;SDS011;59263;48.160;11.752;2023-09-18T10:40:11;6.72;;;1.90;;
71456;SDS011;59263;48.160;11.752;2023-09-18T10:42:37;9.23;;;2.53;;
71456;SDS011;59263;48.160;11.752;2023-09-18T10:45:05;12.60;;;2.00;;
71456;SDS011;59263;48.160;11.752;2023-09-18T10:47:35;8.02;;;2.25;;
71456;SDS011;59263;48.160;11.752;2023-09-18T10:50:03;8.38;;;2.20;;
71456;SDS011;59263;48.160;11.752;2023-09-18T10:52:29;8.75;;;2.15;;
71456;SDS011;59263;48.160;11.752;2023-09-18T10:54:55;7.22;;;2.33;;
71456;SDS011;59263;48.160;11.752;2023-09-18T10:57:20;8.80;;;1.70;;
71456;SDS011;59263;48.160;11.752;2023-09-18T10:59:46;12.13;;;1.87;;
71456;SDS011;59263;48.160;11.752;2023-09-18T11:02:15;9.95;;;1.70;;
71456;SDS011;59263;48.160;11.752;2023-09-18T11:04:42;6.20;;;1.77;;
71456;SDS011;59263;48.160;11.752;2023-09-18T11:07:12;6.05;;;1.40;;
71456;SDS011;59263;48.160;11.752;2023-09-18T11:09:44;4.75;;;1.40;;
71456;SDS011;59263;48.160;11.752;2023-09-18T11:12:10;7.03;;;2.00;;
71456;SDS011;59263;48.160;11.752;2023-09-18T11:14:50;6.70;;;1.83;;
71456;SDS011;59263;48.160;11.752;2023-09-18T11:20:06;8.30;;;1.80;;
71456;SDS011;59263;48.160;11.752;2023-09-18T11:22:39;10.02;;;1.83;;
71456;SDS011;59263;48.160;11.752;2023-09-18T11:28:02;6.85;;;1.98;;
71456;SDS011;59263;48.160;11.752;2023-09-18T11:30:31;6.45;;;1.73;;
71456;SDS011;59263;48.160;11.752;2023-09-18T11:32:58;6.97;;;1.67;;
71456;SDS011;59263;48.160;11.752;2023-09-18T11:35:23;8.50;;;2.00;;
71456;SDS011;59263;48.160;11.752;2023-09-18T11:38:02;10.70;;;1.80;;
71456;SDS011;59263;48.160;11.752;2023-09-18T11:40:30;7.32;;;1.80;;
71456;SDS011;59263;48.160;11.752;2023-09-18T11:43:20;5.93;;;1.63;;
71456;SDS011;59263;48.160;11.752;2023-09-18T11:45:52;5.97;;;1.75;;
71456;SDS011;59263;48.160;11.752;2023-09-18T11:48:19;10.50;;;1.67;;
71456;SDS011;59263;48.160;11.752;2023-09-18T11:50:46;8.48;;;1.58;;
71456;SDS011;59263;48.160;11.752;2023-09-18T11:53:14;9.40;;;1.52;;
71456;SDS011;59263;48.160;11.752;2023-09-18T11:55:39;7.55;;;1.70;;
71456;SDS011;59263;48.160;11.752;2023-09-18T11:58:05;5.20;;;1.27;;
71456;SDS011;59263;48.160;11.752;2023-09-18T12:00:31;7.97;;;1.13;;
71456;SDS011;59263;48.160;11.752;2023-09-18T12:02:57;5.72;;;1.20;;
71456;SDS011;59263;48.160;11.752;2023-09-18T12:05:26;6.45;;;1.38;;
71456;SDS011;59263;48.160;11.752;2023-09-18T12:07:51;4.68;;;1.10;;
71456;SDS011;59263;48.160;11.752;2023-09-18T12:10:18;4.72;;;0.80;;
71456;SDS011;59263;48.160;11.752;2023-09-18T12:12:47;4.22;;;1.13;;
71456;SDS011;59263;48.160;11.752;2023-09-18T12:15:13;5.40;;;1.00;;
71456;SDS011;59263;48.160;11.752;2023-09-18T12:17:42;6.50;;;1.00;;
71456;SDS011;59263;48.160;11.752;2023-09-18T12:20:14;9.02;;;1.48;;
71456;SDS011;59263;48.160;11.752;2023-09-18T12:22:46;6.70;;;1.20;;
71456;SDS011;59263;48.160;11.752;2023-09-18T12:25:14;4.00;;;1.05;;
71456;SDS011;59263;48.160;11.752;2023-09-18T12:27:40;3.40;;;0.88;;
71456;SDS011;59263;48.160;11.752;2023-09-18T12:30:06;3.33;;;0.80;;
71456;SDS011;59263;48.160;11.752;2023-09-18T12:32:40;2.95;;;0.70;;
71456;SDS011;59263;48.160;11.752;2023-09-18T12:35:05;5.03;;;1.20;;
71456;SDS011;59263;48.160;11.752;2023-09-18T12:37:35;2.40;;;0.60;;
71456;SDS011;59263;48.160;11.752;2023-09-18T12:40:28;3.20;;;0.90;;
71456;SDS011;59263;48.160;11.752;2023-09-18T12:42:57;3.28;;;0.90;;
71456;SDS011;59263;48.160;11.752;2023-09-18T12:45:24;2.95;;;0.80;;
71456;SDS011;59263;48.160;11.752;2023-09-18T12:47:51;5.10;;;0.90;;
71456;SDS011;59263;48.160;11.752;2023-09-18T12:50:17;2.95;;;0.75;;
71456;SDS011;59263;48.160;11.752;2023-09-18T12:52:42;3.67;;;0.60;;
71456;SDS011;59263;48.160;11.752;2023-09-18T12:55:08;3.40;;;0.80;;
71456;SDS011;59263;48.160;11.752;2023-09-18T12:57:45;1.92;;;0.63;;
71456;SDS011;59263;48.160;11.752;2023-09-18T13:00:10;3.77;;;0.87;;
71456;SDS011;59263;48.160;11.752;2023-09-18T13:02:38;6.22;;;1.15;;
71456;SDS011;59263;48.160;11.752;2023-09-18T13:05:04;2.90;;;0.90;;
71456;SDS011;59263;48.160;11.752;2023-09-18T13:07:30;3.67;;;0.85;;
71456;SDS011;59263;48.160;11.752;2023-09-18T13:10:03;4.80;;;0.95;;
71456;SDS011;59263;48.160;11.752;2023-09-18T13:15:06;2.17;;;0.60;;
71456;SDS011;59263;48.160;11.752;2023-09-18T13:17:43;2.27;;;0.60;;
71456;SDS011;59263;48.160;11.752;2023-09-18T13:20:11;2.47;;;0.80;;
71456;SDS011;59263;48.160;11.752;2023-09-18T13:22:38;1.77;;;0.65;;
71456;SDS011;59263;48.160;11.752;2023-09-18T13:25:05;3.47;;;0.82;;
71456;SDS011;59263;48.160;11.752;2023-09-18T13:27:32;4.50;;;0.50;;
71456;SDS011;59263;48.160;11.752;2023-09-18T13:29:58;3.13;;;0.67;;
71456;SDS011;59263;48.160;11.752;2023-09-18T13:32:31;2.55;;;0.50;;
71456;SDS011;59263;48.160;11.752;2023-09-18T13:35:05;3.72;;;0.70;;
71456;SDS011;59263;48.160;11.752;2023-09-18T13:37:32;1.83;;;0.70;;
71456;SDS011;59263;48.160;11.752;2023-09-18T13:39:58;3.40;;;0.50;;
71456;SDS011;59263;48.160;11.752;2023-09-18T13:42:26;2.03;;;0.50;;
71456;SDS011;59263;48.160;11.752;2023-09-18T13:44:52;2.33;;;0.45;;
71456;SDS011;59263;48.160;11.752;2023-09-18T13:47:18;2.70;;;0.60;;
71456;SDS011;59263;48.160;11.752;2023-09-18T13:49:44;4.80;;;0.73;;
71456;SDS011;59263;48.160;11.752;2023-09-18T13:52:11;5.78;;;0.68;;
71456;SDS011;59263;48.160;11.752;2023-09-18T13:54:37;1.40;;;0.50;;
71456;SDS011;59263;48.160;11.752;2023-09-18T13:57:02;2.47;;;0.50;;
71456;SDS011;59263;48.160;11.752;2023-09-18T13:59:30;4.07;;;0.70;;
71456;SDS011;59263;48.160;11.752;2023-09-18T14:01:55;1.63;;;0.70;;
71456;SDS011;59263;48.160;11.752;2023-09-18T14:04:21;2.23;;;0.57;;
71456;SDS011;59263;48.160;11.752;2023-09-18T14:06:47;2.72;;;0.73;;
71456;SDS011;59263;48.160;11.752;2023-09-18T14:09:12;3.50;;;0.53;;
71456;SDS011;59263;48.160;11.752;2023-09-18T14:11:38;3.67;;;0.63;;
71456;SDS011;59263;48.160;11.752;2023-09-18T14:14:03;1.90;;;0.57;;
71456;SDS011;59263;48.160;11.752;2023-09-18T14:16:29;2.97;;;0.70;;
71456;SDS011;59263;48.160;11.752;2023-09-18T14:18:58;2.53;;;0.68;;
71456;SDS011;59263;48.160;11.752;2023-09-18T14:21:23;3.93;;;0.70;;
71456;SDS011;59263;48.160;11.752;2023-09-18T14:23:49;7.73;;;0.93;;
71456;SDS011;59263;48.160;11.752;2023-09-18T14:26:14;6.20;;;0.60;;
71456;SDS011;59263;48.160;11.752;2023-09-18T14:28:40;4.57;;;0.80;;
71456;SDS011;59263;48.160;11.752;2023-09-18T14:31:05;2.77;;;0.63;;
71456;SDS011;59263;48.160;11.752;2023-09-18T14:33:30;3.73;;;0.80;;
71456;SDS011;59263;48.160;11.752;2023-09-18T14:35:55;2.67;;;0.70;;
71456;SDS011;59263;48.160;11.752;2023-09-18T14:38:21;3.83;;;0.85;;
71456;SDS011;59263;48.160;11.752;2023-09-18T14:40:47;2.97;;;0.60;;
71456;SDS011;59263;48.160;11.752;2023-09-18T14:43:12;2.13;;;0.70;;
71456;SDS011;59263;48.160;11.752;2023-09-18T14:45:37;3.57;;;0.60;;
71456;SDS011;59263;48.160;11.752;2023-09-18T14:48:03;3.07;;;0.70;;
71456;SDS011;59263;48.160;11.752;2023-09-18T14:50:29;2.90;;;0.60;;